Time;durP1;ratioP1;P1;durP2;ratioP2;P2;SDS_P1;SDS_P2;PMS_P1;PMS_P2;Temp;Humidity;BMP_temperature;BMP_pressure;BME280_temperature;BME280_humidity;BME280_pressure;Samples;Min_cycle;Max_cycle;Signal;HPM_P1;HPM_P2
2023/01/19 00:01:33;;;;;;;27.90;13.88;;;;;;;6.28;100.00;99586.19;1699299;84;21138;-60
2023/01/19 00:04:01;;;;;;;38.28;14.58;;;;;;;6.31;100.00;99568.13;1697155;83;21122;-58
2023/01/19 00:06:31;;;;;;;31.65;12.37;;;;;;;6.31;100.00;99568.13;1689882;85;21134;-59
2023/01/19 00:09:01;;;;;;;36.33;12.53;;;;;;;6.33;100.00;99574.73;1668644;85;21198;-59
2023/01/19 00:11:30;;;;;;;30.27;14.05;;;;;;;6.36;100.00;99575.20;1689871;85;21226;-58
2023/01/19 00:13:59;;;;;;;38.53;14.23;;;;;;;6.39;100.00;99584.86;1689561;84;21182;-59
2023/01/19 00:16:28;;;;;;;32.48;14.13;;;;;;;6.32;100.00;99598.38;1689463;84;21146;-58
2023/01/19 00:18:58;;;;;;;24.72;13.53;;;;;;;6.28;100.00;99609.31;1689538;85;21194;-59
2023/01/19 00:21:29;;;;;;;31.27;12.93;;;;;;;6.26;100.00;99622.26;1689553;85;21190;-59
2023/01/19 00:23:58;;;;;;;26.90;11.22;;;;;;;6.22;100.00;99631.83;1689540;85;21138;-58
2023/01/19 00:26:28;;;;;;;26.90;10.78;;;;;;;6.20;100.00;99622.17;1689532;85;21181;-60
2023/01/19 00:28:57;;;;;;;24.05;9.68;;;;;;;6.17;100.00;99606.23;1689689;85;21828;-59
2023/01/19 00:31:28;;;;;;;26.80;10.75;;;;;;;6.14;100.00;99597.09;1689757;84;21161;-58
2023/01/19 00:33:56;;;;;;;25.12;10.45;;;;;;;6.15;100.00;99595.53;1689833;85;21190;-59
2023/01/19 00:36:25;;;;;;;24.65;10.15;;;;;;;6.14;100.00;99610.17;1689545;84;21138;-60
2023/01/19 00:38:55;;;;;;;24.05;10.03;;;;;;;6.14;100.00;99618.84;1689641;85;21182;-58
2023/01/19 00:44:13;;;;;;;22.60;9.53;;;;;;;6.09;100.00;99635.73;1689720;84;21146;-59
2023/01/19 00:46:42;;;;;;;19.75;8.93;;;;;;;6.05;100.00;99611.30;1689723;85;21182;-58
2023/01/19 00:49:11;;;;;;;18.20;9.35;;;;;;;6.04;100.00;99609.09;1689816;85;21621;-58
2023/01/19 00:51:40;;;;;;;18.77;9.08;;;;;;;6.07;100.00;99620.63;1689878;85;21201;-59
2023/01/19 00:54:09;;;;;;;19.55;8.80;;;;;;;6.06;100.00;99625.73;1689814;85;21142;-59
2023/01/19 00:56:39;;;;;;;18.48;9.60;;;;;;;6.04;100.00;99625.41;1689810;85;21186;-59
2023/01/19 00:59:07;;;;;;;18.25;8.50;;;;;;;6.03;100.00;99612.84;1689832;85;21170;-60
2023/01/19 01:01:36;;;;;;;20.02;9.45;;;;;;;6.02;100.00;99615.23;1689693;84;21226;-59
2023/01/19 01:04:07;;;;;;;21.90;11.83;;;;;;;5.98;100.00;99613.92;1689017;84;21107;-59
2023/01/19 01:06:37;;;;;;;18.92;9.55;;;;;;;5.94;100.00;99611.77;1697388;84;21182;-58
2023/01/19 01:09:10;;;;;;;23.42;10.25;;;;;;;5.95;100.00;99608.02;1697360;84;21142;-58
2023/01/19 01:11:40;;;;;;;20.48;10.18;;;;;;;5.92;100.00;99609.23;1697422;84;21190;-58
2023/01/19 01:14:13;;;;;;;22.70;10.80;;;;;;;5.91;100.00;99608.91;1697412;84;21146;-56
2023/01/19 01:16:43;;;;;;;22.98;10.45;;;;;;;5.90;100.00;99607.22;1697476;84;21122;-58
2023/01/19 01:19:12;;;;;;;20.85;9.28;;;;;;;5.91;100.00;99603.47;1697342;84;21597;-58
2023/01/19 01:21:42;;;;;;;17.77;9.18;;;;;;;5.91;100.00;99614.34;1697698;84;21137;-58
2023/01/19 01:24:11;;;;;;;17.80;9.20;;;;;;;5.91;100.00;99621.14;1697415;84;21178;-57
2023/01/19 01:26:41;;;;;;;22.98;10.40;;;;;;;5.89;100.00;99623.69;1697419;84;21641;-58
2023/01/19 01:29:11;;;;;;;21.68;9.88;;;;;;;5.86;100.00;99633.06;1697630;84;21166;-59
2023/01/19 01:31:41;;;;;;;23.87;10.45;;;;;;;5.84;100.00;99632.88;1697320;84;21170;-57
2023/01/19 01:34:12;;;;;;;24.50;10.65;;;;;;;5.83;100.00;99636.12;1697515;84;22145;-58
2023/01/19 01:36:41;;;;;;;22.50;10.32;;;;;;;5.83;100.00;99646.99;1697413;84;21142;-58
2023/01/19 01:39:10;;;;;;;25.82;10.68;;;;;;;5.83;100.00;99658.37;1697343;84;21249;-57
2023/01/19 01:41:41;;;;;;;27.77;11.25;;;;;;;5.78;100.00;99660.30;1697598;84;21310;-57
2023/01/19 01:44:51;;;;;;;25.37;12.05;;;;;;;5.73;100.00;99662.72;1697548;84;21165;-57
2023/01/19 01:47:37;;;;;;;35.38;13.20;;;;;;;5.71;100.00;99678.38;1697376;84;21130;-58
2023/01/19 01:50:22;;;;;;;30.90;13.08;;;;;;;5.68;100.00;99668.71;1697888;84;21206;-57
2023/01/19 01:53:01;;;;;;;28.20;10.80;;;;;;;5.67;100.00;99664.30;1697566;84;21161;-58
2023/01/19 01:55:35;;;;;;;28.30;11.28;;;;;;;5.68;100.00;99675.50;1697672;84;21193;-58
2023/01/19 01:58:05;;;;;;;23.47;11.12;;;;;;;5.73;100.00;99684.47;1697445;84;21253;-58
2023/01/19 02:03:22;;;;;;;29.55;12.60;;;;;;;5.73;100.00;99680.39;1697355;84;21146;-58
2023/01/19 02:05:56;;;;;;;28.90;11.83;;;;;;;5.72;100.00;99677.34;1693393;84;21182;-57
2023/01/19 02:14:26;;;;;;;31.48;13.55;;;;;;;5.80;100.00;99679.98;1648264;85;21146;-58
2023/01/19 02:16:55;;;;;;;33.02;11.65;;;;;;;5.82;100.00;99669.77;1689434;85;21171;-57
2023/01/19 02:19:36;;;;;;;25.62;11.35;;;;;;;5.83;100.00;99664.66;1689492;85;21174;-57
2023/01/19 02:22:25;;;;;;;24.00;10.93;;;;;;;5.83;100.00;99667.89;1689465;85;21190;-58
2023/01/19 02:24:54;;;;;;;27.60;11.50;;;;;;;5.84;100.00;99679.94;1689136;85;21604;-58
2023/01/19 02:27:23;;;;;;;20.77;10.63;;;;;;;5.84;100.00;99670.94;1689368;85;21249;-58
2023/01/19 02:29:52;;;;;;;24.98;10.98;;;;;;;5.86;100.00;99677.07;1689348;85;21178;-58
2023/01/19 02:32:21;;;;;;;20.20;9.75;;;;;;;5.86;100.00;99681.15;1689648;85;21206;-58
2023/01/19 02:34:50;;;;;;;22.73;11.28;;;;;;;5.85;100.00;99673.50;1689474;85;21179;-58
2023/01/19 02:37:18;;;;;;;21.85;10.58;;;;;;;5.83;100.00;99676.05;1689457;85;21135;-58
2023/01/19 02:39:57;;;;;;;25.32;12.60;;;;;;;5.79;100.00;99670.66;1689410;85;21130;-59
2023/01/19 02:42:31;;;;;;;27.95;12.55;;;;;;;5.71;100.00;99662.91;1689537;85;21130;-57
2023/01/19 02:45:05;;;;;;;23.62;10.90;;;;;;;5.63;100.00;99676.58;1689664;85;21118;-59
2023/01/19 02:47:40;;;;;;;24.60;11.65;;;;;;;5.57;100.00;99667.80;1689668;85;21171;-58
2023/01/19 02:50:42;;;;;;;28.83;12.18;;;;;;;5.52;100.00;99662.07;1689462;85;21629;-57
2023/01/19 02:53:53;;;;;;;28.00;13.08;;;;;;;5.51;100.00;99652.74;1629354;88;21127;-59
2023/01/19 02:56:48;;;;;;;27.93;11.60;;;;;;;5.52;100.00;99645.77;1629423;88;21606;-58
2023/01/19 02:59:52;;;;;;;22.55;10.85;;;;;;;5.52;100.00;99672.09;1686328;85;21206;-60
2023/01/19 03:02:45;;;;;;;25.02;11.95;;;;;;;5.48;100.00;99667.54;1689351;85;21185;-59
2023/01/19 03:05:32;;;;;;;24.77;11.10;;;;;;;5.45;100.00;99652.96;1690321;84;21558;-58
2023/01/19 03:08:31;;;;;;;19.23;10.43;;;;;;;5.48;100.00;99657.19;1697918;84;21139;-58
2023/01/19 03:11:08;;;;;;;28.95;11.60;;;;;;;5.53;100.00;99666.98;1672133;84;21170;-58
2023/01/19 03:13:48;;;;;;;26.75;12.03;;;;;;;5.54;100.00;99674.11;1697294;84;21601;-58
2023/01/19 03:16:25;;;;;;;26.70;11.73;;;;;;;5.49;100.00;99668.38;1697498;84;21182;-58
2023/01/19 03:18:59;;;;;;;24.90;11.28;;;;;;;5.49;100.00;99681.97;1697603;84;21138;-56
2023/01/19 03:21:27;;;;;;;22.07;9.88;;;;;;;5.47;100.00;99686.23;1697289;84;21250;-58
2023/01/19 03:24:01;;;;;;;20.40;9.23;;;;;;;5.48;100.00;99680.28;1697350;84;21134;-58
2023/01/19 03:26:35;;;;;;;20.80;9.75;;;;;;;5.46;100.00;99677.74;1697793;84;21150;-57
2023/01/19 03:29:03;;;;;;;18.15;8.38;;;;;;;5.48;100.00;99679.77;1696852;84;21154;-58
2023/01/19 03:31:33;;;;;;;25.60;9.50;;;;;;;5.49;100.00;99680.09;1697392;84;21146;-57
2023/01/19 03:34:06;;;;;;;22.17;8.40;;;;;;;5.52;100.00;99686.52;1697516;84;21135;-60
2023/01/19 03:36:43;;;;;;;19.57;8.78;;;;;;;5.53;100.00;99690.08;1697267;84;21216;-58
2023/01/19 03:39:15;;;;;;;21.45;8.45;;;;;;;5.53;100.00;99690.93;1697681;84;21588;-58
2023/01/19 03:41:43;;;;;;;18.70;8.03;;;;;;;5.53;100.00;99685.50;1697282;84;21213;-58
2023/01/19 03:44:13;;;;;;;18.65;8.80;;;;;;;5.54;100.00;99689.05;1697250;84;21545;-58
2023/01/19 03:46:41;;;;;;;18.07;7.65;;;;;;;5.55;100.00;99694.31;1697285;84;21177;-57
2023/01/19 03:49:10;;;;;;;20.15;8.78;;;;;;;5.54;100.00;99695.34;1697149;84;21229;-59
2023/01/19 03:51:40;;;;;;;18.12;8.08;;;;;;;5.52;100.00;99693.83;1697366;84;21175;-56
2023/01/19 03:54:10;;;;;;;16.40;8.08;;;;;;;5.46;100.00;99692.69;1697695;84;21566;-58
2023/01/19 03:56:42;;;;;;;18.37;8.05;;;;;;;5.46;100.00;99695.92;1697338;84;21628;-57
2023/01/19 03:59:11;;;;;;;19.15;8.70;;;;;;;5.40;100.00;99690.19;1697269;84;21118;-59
2023/01/19 04:01:40;;;;;;;18.02;8.38;;;;;;;5.36;100.00;99689.37;1697289;84;21190;-57
2023/01/19 04:04:09;;;;;;;20.65;9.10;;;;;;;5.33;100.00;99689.22;1697316;84;21150;-57
2023/01/19 04:06:40;;;;;;;18.90;8.50;;;;;;;5.30;100.00;99693.66;1692578;83;21566;-57
2023/01/19 04:09:10;;;;;;;24.30;9.08;;;;;;;5.22;100.00;99685.57;1689396;85;21198;-59
2023/01/19 04:11:39;;;;;;;21.02;8.93;;;;;;;5.17;100.00;99683.03;1690815;85;21562;-58
2023/01/19 04:14:08;;;;;;;21.33;8.88;;;;;;;5.14;100.00;99694.25;1691652;85;21134;-57
2023/01/19 04:16:38;;;;;;;19.80;9.10;;;;;;;5.07;100.00;99699.56;1690353;85;21610;-57
2023/01/19 04:19:08;;;;;;;24.55;10.58;;;;;;;5.04;100.00;99695.84;1689543;85;21602;-58
2023/01/19 04:21:37;;;;;;;39.40;14.78;;;;;;;5.01;100.00;99703.84;1689535;85;21218;-59
2023/01/19 04:24:10;;;;;;;53.25;17.42;;;;;;;5.01;100.00;99706.55;1689551;85;21143;-57
2023/01/19 04:26:39;;;;;;;40.83;14.50;;;;;;;5.02;100.00;99719.61;1689516;85;21123;-58
2023/01/19 04:29:09;;;;;;;36.65;13.18;;;;;;;5.03;100.00;99714.00;1689586;85;21182;-58
2023/01/19 04:31:38;;;;;;;32.70;12.10;;;;;;;5.07;100.00;99722.64;1689672;85;21146;-58
2023/01/19 04:34:07;;;;;;;28.10;11.43;;;;;;;5.10;100.00;99719.56;1689650;85;21162;-58
2023/01/19 04:36:36;;;;;;;24.07;9.55;;;;;;;5.10;100.00;99714.98;1689549;85;21621;-58
2023/01/19 04:39:07;;;;;;;24.90;9.65;;;;;;;5.13;100.00;99718.36;1689387;85;21162;-58
2023/01/19 04:41:37;;;;;;;18.85;8.35;;;;;;;5.10;100.00;99716.85;1689584;85;21162;-58
2023/01/19 04:44:06;;;;;;;21.80;8.85;;;;;;;5.09;100.00;99723.30;1689585;85;21142;-58
2023/01/19 04:46:35;;;;;;;16.25;7.50;;;;;;;5.07;100.00;99729.42;1689663;85;21227;-58
2023/01/19 04:49:04;;;;;;;16.87;7.78;;;;;;;5.05;100.00;99705.68;1689646;85;21194;-57
2023/01/19 04:51:34;;;;;;;17.67;8.50;;;;;;;5.08;100.00;99703.45;1689755;85;21519;-59
2023/01/19 04:54:03;;;;;;;19.10;8.83;;;;;;;5.14;100.00;99708.67;1689386;85;21194;-59
2023/01/19 04:56:32;;;;;;;20.00;9.23;;;;;;;5.18;100.00;99715.95;1689516;85;21217;-58
2023/01/19 04:59:01;;;;;;;19.27;8.85;;;;;;;5.17;100.00;99716.47;1689388;85;21150;-58
2023/01/19 05:01:30;;;;;;;19.52;8.80;;;;;;;5.14;100.00;99710.03;1689577;85;21181;-59
2023/01/19 05:04:02;;;;;;;20.72;8.53;;;;;;;5.10;100.00;99707.34;1689537;85;21449;-59
2023/01/19 05:06:33;;;;;;;14.43;7.80;;;;;;;5.09;100.00;99700.23;1689491;83;21158;-60
2023/01/19 05:09:03;;;;;;;17.80;8.28;;;;;;;5.10;100.00;99713.63;1689990;85;21119;-59
2023/01/19 05:11:32;;;;;;;19.82;8.93;;;;;;;5.13;100.00;99717.00;1689796;85;21138;-60
2023/01/19 05:14:01;;;;;;;16.40;8.38;;;;;;;5.15;100.00;99716.31;1689901;85;21178;-59
2023/01/19 05:16:31;;;;;;;21.25;8.78;;;;;;;5.19;100.00;99711.70;1689784;85;21119;-59
2023/01/19 05:19:00;;;;;;;19.35;8.78;;;;;;;5.21;100.00;99717.83;1689840;85;21182;-58
2023/01/19 05:21:30;;;;;;;20.08;9.30;;;;;;;5.21;100.00;99718.34;1689600;85;21786;-59
2023/01/19 05:23:59;;;;;;;19.67;8.80;;;;;;;5.19;100.00;99713.05;1689636;84;21183;-58
2023/01/19 05:26:28;;;;;;;21.82;9.48;;;;;;;5.18;100.00;99711.87;1689673;85;21574;-59
2023/01/19 05:28:57;;;;;;;20.05;9.55;;;;;;;5.21;100.00;99734.13;1689651;85;21190;-59
2023/01/19 05:31:26;;;;;;;24.27;9.80;;;;;;;5.23;100.00;99725.28;1689648;84;21218;-58
2023/01/19 05:33:55;;;;;;;26.30;10.43;;;;;;;5.27;100.00;99709.47;1689633;85;21573;-59
2023/01/19 05:36:24;;;;;;;23.18;10.32;;;;;;;5.27;100.00;99711.67;1689864;85;21178;-60
2023/01/19 05:38:54;;;;;;;24.77;10.08;;;;;;;5.29;100.00;99697.40;1689894;84;21190;-60
2023/01/19 05:41:24;;;;;;;20.75;9.10;;;;;;;5.31;100.00;99722.51;1689802;84;21178;-59
2023/01/19 05:43:53;;;;;;;24.15;10.43;;;;;;;5.31;100.00;99714.36;1689831;85;21193;-59
2023/01/19 05:46:22;;;;;;;29.57;13.58;;;;;;;5.33;100.00;99718.25;1689994;85;21214;-58
2023/01/19 05:48:51;;;;;;;23.83;11.30;;;;;;;5.34;100.00;99712.64;1689606;85;21146;-59
2023/01/19 05:51:21;;;;;;;22.37;9.90;;;;;;;5.40;100.00;99715.15;1689573;84;21170;-60
2023/01/19 05:53:50;;;;;;;22.10;10.82;;;;;;;5.45;100.00;99733.11;1689896;84;21178;-59
2023/01/19 05:56:21;;;;;;;26.95;11.90;;;;;;;5.48;100.00;99737.33;1689609;84;21189;-60
2023/01/19 05:58:49;;;;;;;25.95;11.12;;;;;;;5.50;100.00;99734.77;1689637;85;21182;-58
2023/01/19 06:01:19;;;;;;;24.10;10.95;;;;;;;5.49;100.00;99703.70;1689611;85;21598;-59
2023/01/19 06:03:50;;;;;;;15.85;8.10;;;;;;;5.47;100.00;99720.70;1689743;84;21182;-58
2023/01/19 06:06:19;;;;;;;25.40;9.98;;;;;;;5.49;100.00;99724.92;1691175;83;21191;-60
2023/01/19 06:08:48;;;;;;;26.80;11.00;;;;;;;5.56;100.00;99732.68;1697344;84;21178;-59
2023/01/19 06:11:18;;;;;;;29.82;12.75;;;;;;;5.60;100.00;99735.36;1697365;84;21146;-59
2023/01/19 06:13:47;;;;;;;36.08;14.28;;;;;;;5.63;100.00;99740.44;1697722;84;21242;-59
2023/01/19 06:16:16;;;;;;;40.08;19.62;;;;;;;5.63;100.00;99727.36;1697568;84;21189;-57
2023/01/19 06:18:46;;;;;;;36.35;17.48;;;;;;;5.62;100.00;99727.03;1697551;84;21188;-59
2023/01/19 06:21:17;;;;;;;39.10;19.02;;;;;;;5.63;100.00;99696.95;1697561;84;21138;-62
2023/01/19 06:23:48;;;;;;;39.92;17.90;;;;;;;5.61;100.00;99672.34;1697728;84;21668;-58
2023/01/19 06:26:17;;;;;;;39.63;20.12;;;;;;;5.59;100.00;99646.72;1697324;84;21653;-59
2023/01/19 06:28:47;;;;;;;28.80;14.35;;;;;;;5.61;100.00;99637.02;1697497;84;21146;-59
2023/01/19 06:31:16;;;;;;;26.52;12.33;;;;;;;5.61;100.00;99622.92;1697226;84;21138;-60
2023/01/19 06:33:45;;;;;;;27.75;14.03;;;;;;;5.58;100.00;99617.02;1697471;84;21181;-58
2023/01/19 06:36:15;;;;;;;31.25;15.83;;;;;;;5.52;100.00;99596.02;1697315;84;21138;-58
2023/01/19 06:38:45;;;;;;;31.97;16.00;;;;;;;5.46;100.00;99584.02;1697309;84;21142;-58
2023/01/19 06:41:14;;;;;;;28.90;15.10;;;;;;;5.43;100.00;99595.77;1697575;84;21106;-57
2023/01/19 06:43:43;;;;;;;36.48;19.73;;;;;;;5.38;100.00;99596.32;1697447;84;21130;-57
2023/01/19 06:46:12;;;;;;;33.35;16.70;;;;;;;5.36;100.00;99592.43;1697274;84;21142;-58
2023/01/19 06:48:42;;;;;;;39.00;18.87;;;;;;;5.37;100.00;99597.34;1697412;84;21141;-59
2023/01/19 06:51:12;;;;;;;43.92;20.85;;;;;;;5.39;100.00;99593.42;1608339;89;21252;-59
2023/01/19 06:53:41;;;;;;;49.03;23.20;;;;;;;5.43;100.00;99590.34;1608715;89;21190;-59
2023/01/19 06:56:11;;;;;;;50.17;23.83;;;;;;;5.49;100.00;99582.80;1608418;89;21185;-60
2023/01/19 06:58:41;;;;;;;51.48;23.65;;;;;;;5.53;100.00;99566.46;1608532;89;22083;-60
2023/01/19 07:01:11;;;;;;;59.18;24.55;;;;;;;5.53;100.00;99570.54;1608355;89;21602;-60
2023/01/19 07:03:40;;;;;;;55.20;23.65;;;;;;;5.55;100.00;99566.60;1608586;89;21150;-58
2023/01/19 07:06:09;;;;;;;55.83;24.20;;;;;;;5.58;100.00;99565.39;1608418;89;21223;-58
2023/01/19 07:08:42;;;;;;;44.95;20.65;;;;;;;5.60;100.00;99585.06;1627941;84;21122;-57
2023/01/19 07:11:11;;;;;;;53.52;23.52;;;;;;;5.58;100.00;99596.13;1697298;84;21325;-60
2023/01/19 07:13:45;;;;;;;48.25;21.10;;;;;;;5.58;100.00;99599.35;1693732;84;21107;-60
2023/01/19 07:16:14;;;;;;;41.40;19.20;;;;;;;5.58;100.00;99612.94;1697318;84;21225;-61
2023/01/19 07:18:44;;;;;;;31.45;16.12;;;;;;;5.56;100.00;99617.72;1697322;84;21157;-58
2023/01/19 07:21:18;;;;;;;29.23;15.03;;;;;;;5.56;100.00;99619.08;1697297;84;21572;-59
2023/01/19 07:23:49;;;;;;;22.42;12.40;;;;;;;5.54;100.00;99616.54;1697297;84;21149;-61
2023/01/19 07:26:20;;;;;;;21.33;10.75;;;;;;;5.51;100.00;99622.86;1697353;84;21162;-60
2023/01/19 07:28:51;;;;;;;21.90;10.50;;;;;;;5.47;100.00;99625.09;1697403;84;21135;-59
2023/01/19 07:31:20;;;;;;;20.40;10.85;;;;;;;5.44;100.00;99620.55;1697318;84;21188;-60
2023/01/19 07:33:49;;;;;;;19.65;10.82;;;;;;;5.37;100.00;99624.00;1697335;84;21146;-60
2023/01/19 07:36:20;;;;;;;14.68;8.35;;;;;;;5.33;100.00;99625.39;1697359;84;21123;-59
2023/01/19 07:38:49;;;;;;;12.37;7.20;;;;;;;5.27;100.00;99615.26;1697378;84;21185;-60
2023/01/19 07:41:18;;;;;;;14.30;7.47;;;;;;;5.31;100.00;99613.87;1667663;84;21146;-59
2023/01/19 07:43:50;;;;;;;13.38;7.95;;;;;;;5.32;100.00;99608.77;1697334;84;21134;-59
2023/01/19 07:46:19;;;;;;;14.65;8.55;;;;;;;5.34;100.00;99599.92;1668931;84;21142;-59
2023/01/19 07:48:49;;;;;;;12.20;7.47;;;;;;;5.35;100.00;99611.63;1697297;84;21169;-62
2023/01/19 07:51:18;;;;;;;14.63;8.73;;;;;;;5.36;100.00;99612.80;1697354;84;21193;-59
2023/01/19 07:53:51;;;;;;;12.88;7.20;;;;;;;5.35;100.00;99613.83;1697412;84;21177;-60
2023/01/19 07:56:22;;;;;;;11.33;6.40;;;;;;;5.37;100.00;99617.72;1697574;84;21148;-59
2023/01/19 07:58:51;;;;;;;11.85;7.35;;;;;;;5.36;100.00;99616.03;1697377;84;21134;-60
2023/01/19 08:01:20;;;;;;;13.10;7.97;;;;;;;5.36;100.00;99610.09;1697345;84;21178;-61
2023/01/19 08:03:49;;;;;;;15.05;8.88;;;;;;;5.37;100.00;99612.29;1697812;84;21142;-61
2023/01/19 08:06:26;;;;;;;18.87;11.60;;;;;;;5.34;100.00;99606.70;1697424;84;21122;-60
2023/01/19 08:08:57;;;;;;;17.98;8.65;;;;;;;5.34;100.00;99607.22;1696720;84;21185;-59
2023/01/19 08:11:26;;;;;;;15.25;7.47;;;;;;;5.34;100.00;99609.42;1697395;84;21142;-59
2023/01/19 08:13:56;;;;;;;11.05;6.58;;;;;;;5.32;100.00;99610.13;1697526;84;21573;-60
2023/01/19 08:16:26;;;;;;;12.95;6.62;;;;;;;5.30;100.00;99605.39;1697715;84;21214;-61
2023/01/19 08:18:55;;;;;;;11.18;7.05;;;;;;;5.27;100.00;99607.11;1697695;84;21189;-60
2023/01/19 08:21:25;;;;;;;11.83;6.33;;;;;;;5.23;100.00;99612.58;1697837;84;21182;-59
2023/01/19 08:23:56;;;;;;;11.35;6.47;;;;;;;5.19;100.00;99623.95;1699115;84;21550;-59
2023/01/19 08:26:32;;;;;;;11.03;6.05;;;;;;;5.14;100.00;99628.58;1699423;84;21213;-59
2023/01/19 08:29:04;;;;;;;10.53;5.55;;;;;;;5.09;100.00;99635.91;1698137;84;21142;-60
2023/01/19 08:31:34;;;;;;;9.95;5.85;;;;;;;5.03;100.00;99643.42;1697462;84;21169;-60
2023/01/19 08:34:04;;;;;;;11.30;5.67;;;;;;;5.00;100.00;99648.37;1697505;84;21146;-59
2023/01/19 08:36:33;;;;;;;8.38;4.75;;;;;;;4.96;100.00;99628.03;1697406;84;21293;-60
2023/01/19 08:39:11;;;;;;;7.30;4.50;;;;;;;4.92;100.00;99632.98;1697424;84;21573;-60
2023/01/19 08:41:40;;;;;;;7.67;4.72;;;;;;;4.89;100.00;99631.14;1697457;84;21174;-61
2023/01/19 08:44:09;;;;;;;8.40;5.12;;;;;;;4.87;100.00;99631.83;1697426;84;21170;-60
2023/01/19 08:46:39;;;;;;;7.60;5.08;;;;;;;4.87;100.00;99628.61;1697565;84;21590;-59
2023/01/19 08:49:10;;;;;;;9.23;5.20;;;;;;;4.89;100.00;99629.78;1698034;82;21143;-61
2023/01/19 08:51:41;;;;;;;9.80;5.10;;;;;;;4.91;100.00;99630.45;1732119;82;21167;-61
2023/01/19 08:54:10;;;;;;;11.63;5.90;;;;;;;4.91;100.00;99631.30;1727985;82;21118;-60
2023/01/19 08:56:41;;;;;;;9.63;5.40;;;;;;;4.93;100.00;99633.83;1744493;82;21107;-60
2023/01/19 08:59:09;;;;;;;10.90;6.83;;;;;;;4.97;100.00;99638.72;1728949;82;21100;-60
2023/01/19 09:01:43;;;;;;;10.82;5.90;;;;;;;5.00;100.00;99635.64;1719903;83;21151;-61
2023/01/19 09:04:12;;;;;;;12.50;6.12;;;;;;;5.02;100.00;99632.74;1719775;83;21707;-61
2023/01/19 09:06:42;;;;;;;11.80;6.70;;;;;;;5.02;100.00;99635.45;1725698;82;21178;-60
2023/01/19 09:09:13;;;;;;;13.32;6.53;;;;;;;5.03;100.00;99634.44;1744505;82;21124;-59
2023/01/19 09:11:43;;;;;;;12.75;6.72;;;;;;;5.04;100.00;99634.25;1716351;82;21546;-60
2023/01/19 09:14:13;;;;;;;15.03;7.35;;;;;;;5.08;100.00;99636.94;1744255;82;21123;-61
2023/01/19 09:16:43;;;;;;;13.15;8.28;;;;;;;5.13;100.00;99632.83;1744787;82;21123;-62
2023/01/19 09:19:12;;;;;;;14.75;7.12;;;;;;;5.15;100.00;99637.05;1744496;82;21209;-60
2023/01/19 09:21:41;;;;;;;12.35;6.78;;;;;;;5.18;100.00;99633.97;1696085;84;21158;-60
2023/01/19 09:24:12;;;;;;;12.53;6.25;;;;;;;5.21;100.00;99631.44;1715596;82;21158;-60
2023/01/19 09:26:41;;;;;;;17.90;8.00;;;;;;;5.25;100.00;99630.89;1744405;82;21166;-60
2023/01/19 09:29:10;;;;;;;14.90;8.48;;;;;;;5.28;100.00;99625.09;1744528;82;21134;-61
2023/01/19 09:31:39;;;;;;;12.03;7.40;;;;;;;5.32;100.00;99615.55;1744729;82;21193;-61
2023/01/19 09:34:09;;;;;;;12.82;7.75;;;;;;;5.35;100.00;99623.34;1744618;82;21150;-61
2023/01/19 09:36:38;;;;;;;14.03;7.35;;;;;;;5.37;100.00;99610.42;1744815;82;21126;-61
2023/01/19 09:39:08;;;;;;;14.80;7.25;;;;;;;5.44;100.00;99620.55;1744372;82;21652;-61
2023/01/19 09:41:38;;;;;;;13.78;7.03;;;;;;;5.44;100.00;99616.47;1744586;82;21163;-60
2023/01/19 09:44:09;;;;;;;15.95;7.80;;;;;;;5.45;100.00;99602.70;1744323;82;21319;-60
2023/01/19 09:46:39;;;;;;;18.77;8.30;;;;;;;5.47;100.00;99594.38;1744519;82;21162;-61
2023/01/19 09:49:18;;;;;;;13.80;7.85;;;;;;;5.48;100.00;99591.98;1744422;82;21165;-62
2023/01/19 09:51:48;;;;;;;153.50;97.67;;;;;;;5.52;100.00;99581.92;1744432;82;21194;-62
2023/01/19 09:54:29;;;;;;;17.77;9.68;;;;;;;5.52;100.00;99572.41;1744508;82;21087;-61
2023/01/19 09:56:57;;;;;;;16.27;7.62;;;;;;;5.55;100.00;99573.39;1744635;82;21202;-61
2023/01/19 09:59:29;;;;;;;15.30;8.45;;;;;;;5.57;100.00;99571.34;1698271;82;21164;-61
2023/01/19 10:02:29;;;;;;;14.83;7.58;;;;;;;5.60;100.00;99566.89;1690873;83;21177;-61
2023/01/19 13:31:09;;;;;;;33.73;12.60;;;;;;;7.44;100.00;99445.30;1829627;77;25684;-63
2023/01/19 13:33:54;;;;;;;43.05;15.05;;;;;;;7.43;100.00;99452.63;1788510;80;21656;-66
2023/01/19 13:36:42;;;;;;;40.00;13.65;;;;;;;7.48;100.00;99465.66;1760920;80;21139;-65
2023/01/19 13:39:35;;;;;;;46.95;14.78;;;;;;;7.54;100.00;99467.58;1686809;83;21152;-66
2023/01/19 13:42:14;;;;;;;42.03;12.70;;;;;;;7.60;100.00;99468.14;1761677;78;21507;-64
2023/01/19 13:44:51;;;;;;;40.15;12.15;;;;;;;7.65;100.00;99475.19;1782115;80;21120;-64
2023/01/19 13:47:27;;;;;;;44.27;12.35;;;;;;;7.72;100.00;99472.50;1784980;80;21135;-64
2023/01/19 13:49:59;;;;;;;35.65;11.38;;;;;;;7.76;100.00;99470.53;1772184;80;21585;-64
2023/01/19 13:52:30;;;;;;;32.33;9.88;;;;;;;7.83;100.00;99461.05;1790601;80;21096;-65
2023/01/19 13:55:01;;;;;;;35.65;9.73;;;;;;;7.87;100.00;99463.16;1737370;82;21136;-65
2023/01/19 13:57:44;;;;;;;28.15;9.05;;;;;;;7.92;100.00;99463.39;1783333;80;21132;-63
2023/01/19 14:00:23;;;;;;;30.85;9.68;;;;;;;7.97;100.00;99466.87;1787955;80;21131;-64
2023/01/19 14:03:08;;;;;;;31.33;8.98;;;;;;;8.03;100.00;99468.78;1706371;84;21124;-63
2023/01/19 14:05:41;;;;;;;30.88;9.28;;;;;;;8.07;100.00;99472.78;1789097;80;21136;-62
2023/01/19 14:08:14;;;;;;;35.45;10.45;;;;;;;8.13;100.00;99475.22;1790772;80;21132;-64
2023/01/19 14:10:47;;;;;;;25.27;8.83;;;;;;;8.16;100.00;99474.28;1790963;80;21148;-64
2023/01/19 14:13:21;;;;;;;32.83;9.10;;;;;;;8.20;100.00;99477.45;1790961;80;21182;-63
2023/01/19 14:15:57;;;;;;;30.20;8.33;;;;;;;8.22;100.00;99472.63;1790758;80;21111;-64
2023/01/19 14:18:30;;;;;;;33.45;8.50;;;;;;;8.25;100.00;99476.30;1790691;80;21534;-65
2023/01/19 14:21:04;;;;;;;25.90;7.78;;;;;;;8.28;100.00;99465.82;1790776;79;21136;-66
2023/01/19 14:23:58;;;;;;;30.82;7.47;;;;;;;8.34;100.00;99482.45;1771254;80;21503;-65
2023/01/19 14:26:50;;;;;;;31.62;8.03;;;;;;;8.39;100.00;99486.77;1775378;80;21167;-64
2023/01/19 14:29:31;;;;;;;40.70;9.33;;;;;;;8.41;100.00;99490.13;1770773;81;21115;-64
2023/01/19 14:32:12;;;;;;;29.07;8.78;;;;;;;8.42;100.00;99487.20;1775521;81;21620;-62
2023/01/19 14:34:49;;;;;;;32.90;7.97;;;;;;;8.45;100.00;99492.28;1772314;81;21139;-62
2023/01/19 14:37:31;;;;;;;39.83;9.28;;;;;;;8.47;100.00;99498.37;1772200;80;21151;-63
2023/01/19 14:40:19;;;;;;;32.13;8.63;;;;;;;8.51;100.00;99501.01;1775906;81;21120;-63
2023/01/19 14:43:02;;;;;;;36.10;8.50;;;;;;;8.53;100.00;99506.27;1767710;81;21652;-66
2023/01/19 14:45:37;;;;;;;34.40;8.78;;;;;;;8.55;100.00;99507.73;1766574;80;21528;-62
2023/01/19 14:48:18;;;;;;;33.98;8.55;;;;;;;8.56;100.00;99499.86;1766847;80;21187;-64
2023/01/19 14:50:49;;;;;;;32.33;8.53;;;;;;;8.57;100.00;99507.01;1766918;80;21146;-64
2023/01/19 14:53:27;;;;;;;39.38;8.93;;;;;;;8.61;100.00;99503.86;1765822;80;21127;-63
2023/01/19 14:56:03;;;;;;;31.73;8.33;;;;;;;8.61;100.00;99499.77;1766502;80;21148;-64
2023/01/19 14:58:34;;;;;;;32.83;8.38;;;;;;;8.62;100.00;99498.72;1766779;80;21108;-65
2023/01/19 15:01:05;;;;;;;34.58;9.00;;;;;;;8.63;100.00;99493.05;1766559;80;21120;-64
2023/01/19 15:03:34;;;;;;;33.45;8.65;;;;;;;8.65;100.00;99495.58;1766931;81;21139;-63
2023/01/19 15:06:06;;;;;;;33.25;8.85;;;;;;;8.66;100.00;99506.81;1766118;80;21152;-63
2023/01/19 15:08:37;;;;;;;32.80;9.28;;;;;;;8.67;100.00;99505.77;1767075;80;21108;-64
2023/01/19 15:11:12;;;;;;;34.98;9.75;;;;;;;8.68;100.00;99489.17;1766540;81;21104;-63
2023/01/19 15:13:43;;;;;;;29.42;8.75;;;;;;;8.69;100.00;99494.11;1766783;81;21096;-63
2023/01/19 15:16:12;;;;;;;37.70;9.03;;;;;;;8.69;100.00;99492.22;1766813;81;21136;-67
2023/01/19 15:18:41;;;;;;;36.15;9.85;;;;;;;8.70;100.00;99478.88;1766927;81;21147;-63
2023/01/19 15:21:25;;;;;;;38.40;9.50;;;;;;;8.71;100.00;99482.45;1766585;80;21119;-64
2023/01/19 15:23:57;;;;;;;29.57;8.83;;;;;;;8.73;100.00;99487.18;1766619;80;21112;-63